Time;durP1;ratioP1;P1;durP2;ratioP2;P2;SDS_P1;SDS_P2;PMS_P1;PMS_P2;Temp;Humidity;BMP_temperature;BMP_pressure;BME280_temperature;BME280_humidity;BME280_pressure;Samples;Min_cycle;Max_cycle;Signal;HPM_P1;HPM_P2
2022/01/16 00:05:00;;;;;;;;;;;;;;;-3.97;71.00;93938.47;6351352;28;19923;-62
2022/01/16 00:08:01;;;;;;;;;;;;;;;-3.90;70.03;93952.66;6350256;28;20026;-61
2022/01/16 00:11:05;;;;;;;;;;;;;;;-3.80;69.74;93928.09;6351382;28;19923;-61
2022/01/16 00:14:06;;;;;;;;;;;;;;;-3.84;69.84;93924.03;6350436;28;19979;-61
2022/01/16 00:17:07;;;;;;;;;;;;;;;-3.77;69.36;93930.47;6351118;28;19931;-62
2022/01/16 00:20:08;;;;;;;;;;;;;;;-3.71;68.84;93925.03;6350890;28;19924;-62
2022/01/16 00:23:10;;;;;;;;;;;;;;;-3.76;68.96;93924.44;6350322;28;20023;-62
2022/01/16 00:26:11;;;;;;;;;;;;;;;-3.89;69.62;93928.59;6350705;28;19926;-62
2022/01/16 00:29:12;;;;;;;;;;;;;;;-3.94;69.66;93936.56;6349692;28;19923;-62
2022/01/16 00:32:14;;;;;;;;;;;;;;;-3.84;69.22;93947.16;6349673;28;20300;-61
2022/01/16 00:35:15;;;;;;;;;;;;;;;-4.11;69.84;93947.75;6350548;28;19931;-61
2022/01/16 00:38:16;;;;;;;;;;;;;;;-4.10;70.39;93936.59;6349817;28;19930;-62
2022/01/16 00:41:20;;;;;;;;;;;;;;;-4.08;70.83;93913.38;6350475;28;20436;-61
2022/01/16 00:44:21;;;;;;;;;;;;;;;-4.14;71.97;93909.41;6350359;28;19930;-61
2022/01/16 00:47:24;;;;;;;;;;;;;;;-4.10;72.11;93926.31;6350331;28;19923;-61
2022/01/16 00:50:25;;;;;;;;;;;;;;;-4.30;72.45;93927.41;6350220;28;19983;-61
2022/01/16 00:53:26;;;;;;;;;;;;;;;-4.27;72.65;93916.16;6349882;28;19924;-61
2022/01/16 00:56:27;;;;;;;;;;;;;;;-4.19;72.70;93916.56;6349197;28;19968;-61
2022/01/16 00:59:31;;;;;;;;;;;;;;;-4.31;73.45;93914.66;6350017;28;19924;-61
2022/01/16 01:02:32;;;;;;;;;;;;;;;-4.12;73.30;93909.34;6348714;28;20377;-62
2022/01/16 01:05:34;;;;;;;;;;;;;;;-4.17;73.69;93925.00;6349806;28;19966;-61
2022/01/16 01:08:35;;;;;;;;;;;;;;;-4.20;73.54;93914.88;6349185;28;19924;-61
2022/01/16 01:11:38;;;;;;;;;;;;;;;-4.24;73.49;93900.56;6348220;28;19924;-61
2022/01/16 01:15:03;;;;;;;;;;;;;;;-4.09;73.08;93894.59;6349721;28;20336;-62
2022/01/16 01:18:06;;;;;;;;;;;;;;;-4.09;73.22;93886.88;6349579;28;19928;-60
2022/01/16 01:21:16;;;;;;;;;;;;;;;-4.03;72.68;93895.16;6348479;28;20306;-61
2022/01/16 01:24:17;;;;;;;;;;;;;;;-4.03;72.31;93905.44;6349566;28;19924;-61
2022/01/16 01:27:23;;;;;;;;;;;;;;;-4.18;72.70;93897.66;6349164;28;19931;-61
2022/01/16 01:30:26;;;;;;;;;;;;;;;-4.26;72.85;93889.56;6349098;28;19928;-61
2022/01/16 01:33:28;;;;;;;;;;;;;;;-4.24;73.53;93897.19;6349052;28;19923;-61
2022/01/16 01:36:28;;;;;;;;;;;;;;;-4.34;73.86;93897.66;6348408;28;20282;-62
2022/01/16 01:39:30;;;;;;;;;;;;;;;-4.36;73.74;93908.94;6348303;28;19969;-62
2022/01/16 01:42:35;;;;;;;;;;;;;;;-4.22;73.90;93909.00;6348540;28;19937;-62
2022/01/16 01:52:19;;;;;;;;;;;;;;;-4.36;74.56;93919.19;6348205;28;19928;-62
2022/01/16 01:55:20;;;;;;;;;;;;;;;-4.29;74.50;93923.09;6347913;28;20000;-62
2022/01/16 01:58:23;;;;;;;;;;;;;;;-4.29;74.73;93917.97;6348237;28;19928;-62
2022/01/16 02:01:25;;;;;;;;;;;;;;;-4.37;74.59;93918.38;6347406;28;19924;-62
2022/01/16 02:04:26;;;;;;;;;;;;;;;-4.35;74.70;93910.59;6348243;28;19919;-62
2022/01/16 02:07:27;;;;;;;;;;;;;;;-4.25;73.89;93908.34;6348313;28;19924;-61
2022/01/16 02:10:32;;;;;;;;;;;;;;;-4.31;74.16;93906.94;6348580;28;19972;-61
2022/01/16 02:13:45;;;;;;;;;;;;;;;-4.34;73.70;93917.38;6347998;28;20082;-61
2022/01/16 02:34:29;;;;;;;;;;;;;;;-4.19;74.49;93895.16;6347402;28;19930;-62
2022/01/16 02:36:49;;;;;;;;;;;;;;;-4.22;75.48;93901.31;6347651;28;19923;-62
2022/01/16 02:40:00;;;;;;;;;;;;;;;-4.15;75.38;93906.94;6347560;28;19928;-62
2022/01/16 02:43:05;;;;;;;;;;;;;;;-4.04;75.16;93914.06;6330053;28;19927;-62
2022/01/16 02:46:48;;;;;;;;;;;;;;;-4.08;75.50;93901.41;6346828;28;19923;-62
2022/01/16 02:49:35;;;;;;;;;;;;;;;-4.12;75.87;93912.72;6340237;28;19927;-62
2022/01/16 02:52:36;;;;;;;;;;;;;;;-4.22;76.21;93901.31;6346595;28;20308;-62
2022/01/16 02:55:41;;;;;;;;;;;;;;;-4.20;75.99;93920.03;6346292;28;19959;-62
2022/01/16 02:58:42;;;;;;;;;;;;;;;-4.33;76.03;93914.75;6347092;28;20388;-61
2022/01/16 03:01:44;;;;;;;;;;;;;;;-4.43;75.96;93866.56;6346775;28;20388;-62
2022/01/16 03:04:45;;;;;;;;;;;;;;;-4.60;77.06;93852.91;6346245;28;19924;-62
2022/01/16 03:07:48;;;;;;;;;;;;;;;-4.65;76.79;93847.19;6347121;28;20405;-62
2022/01/16 03:13:50;;;;;;;;;;;;;;;-4.80;76.89;93850.59;6346308;28;20087;-62
2022/01/16 03:16:53;;;;;;;;;;;;;;;-4.81;77.72;93877.13;6346030;28;19924;-62
2022/01/16 03:23:15;;;;;;;;;;;;;;;-4.81;76.71;93902.78;6346022;28;19928;-61
2022/01/16 03:26:16;;;;;;;;;;;;;;;-4.84;76.76;93895.25;6345901;28;19938;-61
2022/01/16 03:29:21;;;;;;;;;;;;;;;-4.77;76.65;93888.91;6346677;28;19924;-63
2022/01/16 03:32:22;;;;;;;;;;;;;;;-4.76;76.55;93860.59;6345147;28;20401;-61
2022/01/16 03:35:23;;;;;;;;;;;;;;;-4.78;76.77;93823.13;6344786;28;20420;-62
2022/01/16 03:38:24;;;;;;;;;;;;;;;-4.82;76.36;93834.44;6346510;28;19928;-63
2022/01/16 03:41:29;;;;;;;;;;;;;;;-4.77;76.76;93822.22;6346451;28;20408;-61
2022/01/16 03:44:30;;;;;;;;;;;;;;;-4.80;76.48;93848.84;6346481;28;19931;-61
2022/01/16 03:47:31;;;;;;;;;;;;;;;-4.75;76.96;93871.69;6346253;28;19923;-62
2022/01/16 03:50:32;;;;;;;;;;;;;;;-4.75;76.54;93875.09;6346290;28;19923;-62
2022/01/16 03:53:33;;;;;;;;;;;;;;;-4.72;76.71;93881.78;6346004;28;20416;-62
2022/01/16 03:56:35;;;;;;;;;;;;;;;-4.78;76.59;93887.25;6345690;28;20497;-62
2022/01/16 03:59:38;;;;;;;;;;;;;;;-4.69;76.04;93894.47;6345870;28;19923;-63
2022/01/16 04:02:42;;;;;;;;;;;;;;;-4.66;75.60;93911.44;6346055;28;19923;-62
2022/01/16 04:05:43;;;;;;;;;;;;;;;-4.63;75.01;93921.53;6346154;28;19930;-63
2022/01/16 04:08:44;;;;;;;;;;;;;;;-4.79;74.53;93939.44;6345898;28;19932;-62
2022/01/16 04:11:53;;;;;;;;;;;;;;;-5.02;75.02;93940.63;6346055;28;20397;-62
2022/01/16 04:18:03;;;;;;;;;;;;;;;-4.77;74.67;93958.16;6345748;28;20022;-62
2022/01/16 04:21:04;;;;;;;;;;;;;;;-4.97;74.91;93954.88;6345970;28;19930;-62
2022/01/16 04:24:08;;;;;;;;;;;;;;;-5.05;75.34;93951.88;6328187;28;19923;-62
2022/01/16 04:27:11;;;;;;;;;;;;;;;-4.79;74.12;93952.28;6345823;28;19924;-61
2022/01/16 04:30:15;;;;;;;;;;;;;;;-4.89;72.44;93945.97;6345800;28;19924;-63
2022/01/16 04:33:19;;;;;;;;;;;;;;;-4.87;72.30;93959.53;6345848;28;19919;-63
2022/01/16 04:36:24;;;;;;;;;;;;;;;-4.56;68.85;93941.66;6345624;28;19924;-62
2022/01/16 04:39:33;;;;;;;;;;;;;;;-4.59;67.06;93943.53;6344811;28;20407;-61
2022/01/16 04:45:57;;;;;;;;;;;;;;;-4.39;62.50;93947.59;6348985;28;19924;-62
2022/01/16 04:49:00;;;;;;;;;;;;;;;-4.63;62.85;93934.34;6350376;28;19933;-62
2022/01/16 04:52:03;;;;;;;;;;;;;;;-4.69;62.35;93940.63;6349830;28;19934;-61
2022/01/16 04:55:04;;;;;;;;;;;;;;;-4.69;62.29;93932.94;6350268;28;19924;-62
2022/01/16 04:58:05;;;;;;;;;;;;;;;-4.80;62.28;93917.28;6349701;28;19927;-62
2022/01/16 05:01:09;;;;;;;;;;;;;;;-4.85;62.66;93921.81;6350071;28;20411;-62
2022/01/16 05:04:12;;;;;;;;;;;;;;;-4.68;62.19;93908.94;6349159;28;19923;-62
2022/01/16 05:07:15;;;;;;;;;;;;;;;-4.56;61.43;93910.00;6349712;28;19928;-63
2022/01/16 05:10:16;;;;;;;;;;;;;;;-4.58;61.46;93912.66;6349583;28;19924;-62
2022/01/16 05:16:39;;;;;;;;;;;;;;;-4.47;59.73;93916.38;6349760;28;19924;-62
2022/01/16 05:19:44;;;;;;;;;;;;;;;-4.49;59.74;93913.09;6349100;28;19924;-61
2022/01/16 05:22:47;;;;;;;;;;;;;;;-4.41;59.16;93910.94;6348798;28;19924;-61
2022/01/16 05:25:48;;;;;;;;;;;;;;;-4.54;59.36;93910.75;6348569;28;19925;-61
2022/01/16 05:28:50;;;;;;;;;;;;;;;-4.50;59.22;93912.28;6348070;28;19992;-63
2022/01/16 05:31:51;;;;;;;;;;;;;;;-4.58;59.50;93912.66;6349254;28;20026;-62
2022/01/16 05:34:52;;;;;;;;;;;;;;;-4.61;59.44;93929.97;6348852;28;19927;-62
2022/01/16 05:37:55;;;;;;;;;;;;;;;-4.61;58.97;93912.00;6348190;28;19930;-62
2022/01/16 05:40:56;;;;;;;;;;;;;;;-4.70;59.57;93915.03;6348887;28;20381;-62
2022/01/16 05:44:00;;;;;;;;;;;;;;;-4.63;59.77;93906.94;6348751;28;19935;-62
2022/01/16 05:47:02;;;;;;;;;;;;;;;-4.49;59.80;93902.81;6348706;28;19923;-62
2022/01/16 05:50:04;;;;;;;;;;;;;;;-4.39;59.54;93901.41;6348773;28;19930;-62
2022/01/16 05:53:07;;;;;;;;;;;;;;;-4.48;59.48;93912.16;6329671;28;20401;-61
2022/01/16 05:56:08;;;;;;;;;;;;;;;-4.38;59.40;93910.78;6346883;28;19957;-62
2022/01/16 05:59:09;;;;;;;;;;;;;;;-4.39;59.27;93914.22;6348314;28;19930;-62
2022/01/16 06:02:13;;;;;;;;;;;;;;;-4.48;60.19;93914.72;6348385;28;19924;-63
2022/01/16 06:05:16;;;;;;;;;;;;;;;-4.34;60.28;93918.19;6348313;28;19930;-64
2022/01/16 06:08:17;;;;;;;;;;;;;;;-4.18;59.58;93936.19;6347393;28;20404;-62
2022/01/16 06:11:20;;;;;;;;;;;;;;;-4.09;59.11;93927.97;6347109;28;19927;-62
2022/01/16 06:14:22;;;;;;;;;;;;;;;-4.39;60.81;93945.03;6347466;28;19924;-62
2022/01/16 06:17:23;;;;;;;;;;;;;;;-4.29;60.38;93952.16;6347503;28;19931;-62
2022/01/16 06:20:24;;;;;;;;;;;;;;;-4.17;60.48;93935.25;6347314;28;20393;-62
2022/01/16 06:23:25;;;;;;;;;;;;;;;-4.22;60.84;93942.38;6346716;28;20411;-62
2022/01/16 06:26:26;;;;;;;;;;;;;;;-4.18;61.10;93940.50;6346894;28;19928;-63
2022/01/16 06:29:27;;;;;;;;;;;;;;;-4.17;61.19;93939.56;6346999;28;19924;-62
2022/01/16 06:32:34;;;;;;;;;;;;;;;-4.17;61.74;93940.41;6347553;28;19959;-63
2022/01/16 06:35:35;;;;;;;;;;;;;;;-4.07;61.68;93944.13;6345603;28;20393;-63
2022/01/16 06:38:36;;;;;;;;;;;;;;;-4.18;62.05;93943.06;6346781;28;19930;-62
2022/01/16 06:41:40;;;;;;;;;;;;;;;-4.12;62.39;93940.16;6347297;28;19947;-62
2022/01/16 06:44:42;;;;;;;;;;;;;;;-4.16;62.68;93931.78;6346999;28;20001;-62
2022/01/16 06:47:43;;;;;;;;;;;;;;;-3.80;62.03;93932.41;6346504;28;19930;-63
2022/01/16 06:50:45;;;;;;;;;;;;;;;-3.76;61.24;93933.91;6346061;28;19934;-61
2022/01/16 06:53:46;;;;;;;;;;;;;;;-3.80;61.50;93933.22;6345902;28;19923;-62
2022/01/16 06:56:50;;;;;;;;;;;;;;;-3.67;60.87;93934.19;6347038;28;20305;-63
2022/01/16 06:59:51;;;;;;;;;;;;;;;-3.73;61.11;93924.28;6346505;28;19931;-63
2022/01/16 07:02:57;;;;;;;;;;;;;;;-3.69;60.97;93941.16;6346805;28;20426;-63
2022/01/16 07:05:59;;;;;;;;;;;;;;;-3.53;60.54;93930.03;6345972;28;20401;-62
2022/01/16 07:09:00;;;;;;;;;;;;;;;-3.58;60.58;93919.19;6346616;28;19923;-63
2022/01/16 07:12:02;;;;;;;;;;;;;;;-3.46;60.68;93923.59;6346286;28;19923;-62
2022/01/16 07:15:03;;;;;;;;;;;;;;;-3.18;59.30;93921.06;6346244;28;19924;-62
2022/01/16 07:18:04;;;;;;;;;;;;;;;-2.88;58.66;93925.34;6344890;28;19934;-63
2022/01/16 07:21:13;;;;;;;;;;;;;;;-2.55;57.30;93924.22;6345698;28;19924;-64
2022/01/16 07:24:16;;;;;;;;;;;;;;;-2.49;56.34;93913.56;6345964;28;20402;-62
2022/01/16 07:27:17;;;;;;;;;;;;;;;-1.96;56.55;93906.78;6345370;28;19923;-62
2022/01/16 07:30:18;;;;;;;;;;;;;;;-1.07;53.57;93906.16;6346116;28;19924;-62
2022/01/16 07:33:21;;;;;;;;;;;;;;;-0.78;51.81;93895.63;6346403;28;19923;-64
2022/01/16 07:36:22;;;;;;;;;;;;;;;-0.95;52.28;93904.50;6345439;28;20305;-63
2022/01/16 07:39:26;;;;;;;;;;;;;;;-0.71;53.05;93907.19;6346567;28;19924;-62
2022/01/16 07:42:27;;;;;;;;;;;;;;;-0.93;51.22;93905.25;6326566;28;19998;-63
2022/01/16 07:45:30;;;;;;;;;;;;;;;-1.54;52.90;93909.28;6345884;28;20321;-62
2022/01/16 07:48:36;;;;;;;;;;;;;;;-1.72;53.43;93882.97;6345928;28;19977;-62
2022/01/16 07:51:37;;;;;;;;;;;;;;;-1.72;53.92;93895.84;6346185;28;19931;-62
2022/01/16 07:54:38;;;;;;;;;;;;;;;-1.27;53.16;93898.94;6345235;28;19946;-63
2022/01/16 07:57:41;;;;;;;;;;;;;;;-0.51;50.97;93904.06;6345704;28;20006;-63
2022/01/16 08:00:45;;;;;;;;;;;;;;;0.11;50.07;93886.81;6345727;28;19928;-63
2022/01/16 08:03:46;;;;;;;;;;;;;;;0.13;48.50;93882.38;6345325;28;19931;-63
2022/01/16 08:06:47;;;;;;;;;;;;;;;0.44;47.90;93897.31;6344461;28;19930;-63
2022/01/16 08:09:50;;;;;;;;;;;;;;;1.84;46.12;93899.75;6345956;28;19928;-63
2022/01/16 08:12:54;;;;;;;;;;;;;;;1.57;43.26;93898.34;6345965;28;19923;-64
2022/01/16 08:15:55;;;;;;;;;;;;;;;0.06;44.99;93891.50;6344589;28;19928;-63
2022/01/16 08:18:58;;;;;;;;;;;;;;;-1.30;48.23;93894.81;6346268;28;20461;-63
2022/01/16 08:22:01;;;;;;;;;;;;;;;-1.70;48.99;93891.41;6350853;28;19931;-62
2022/01/16 08:25:05;;;;;;;;;;;;;;;-0.69;46.60;93889.84;6350638;28;19928;-63
2022/01/16 08:28:06;;;;;;;;;;;;;;;0.02;44.65;93874.56;6350473;28;19924;-63
2022/01/16 08:31:08;;;;;;;;;;;;;;;1.00;42.54;93867.34;6350184;28;20316;-62
2022/01/16 08:34:11;;;;;;;;;;;;;;;1.82;40.20;93864.53;6350424;28;19966;-64
2022/01/16 08:37:12;;;;;;;;;;;;;;;1.27;41.29;93870.41;6350454;28;19919;-62
2022/01/16 08:40:16;;;;;;;;;;;;;;;0.02;42.58;93874.56;6350246;28;20018;-64
2022/01/16 08:43:17;;;;;;;;;;;;;;;-0.81;44.98;93888.09;6350316;28;19927;-63
2022/01/16 08:46:18;;;;;;;;;;;;;;;-1.28;45.85;93876.63;6349902;28;20448;-63
2022/01/16 08:49:19;;;;;;;;;;;;;;;-0.79;45.36;93891.38;6349584;28;19931;-64
2022/01/16 08:52:23;;;;;;;;;;;;;;;-0.68;44.80;93894.06;6349968;28;20296;-64
2022/01/16 08:55:24;;;;;;;;;;;;;;;-0.93;45.67;93907.81;6350157;28;20304;-64
2022/01/16 08:58:26;;;;;;;;;;;;;;;-0.86;47.15;93892.75;6348940;28;19924;-65
2022/01/16 09:01:30;;;;;;;;;;;;;;;-0.61;45.22;93895.28;6349892;28;19955;-64
2022/01/16 09:04:31;;;;;;;;;;;;;;;-1.33;46.15;93904.47;6349658;28;20377;-64
2022/01/16 09:07:32;;;;;;;;;;;;;;;-0.92;45.85;93910.28;6349729;28;19923;-63
2022/01/16 09:10:38;;;;;;;;;;;;;;;0.21;42.48;93911.91;6349529;28;19924;-63
2022/01/16 09:13:43;;;;;;;;;;;;;;;1.88;37.02;93915.88;6349635;28;19924;-65
2022/01/16 09:16:46;;;;;;;;;;;;;;;4.03;34.33;93925.88;6349030;28;19966;-68
2022/01/16 09:19:47;;;;;;;;;;;;;;;5.28;31.37;93918.28;6348786;28;19924;-66
2022/01/16 09:22:49;;;;;;;;;;;;;;;5.57;30.46;93927.84;6349245;28;19930;-66
2022/01/16 09:25:50;;;;;;;;;;;;;;;5.72;28.24;93921.22;6348564;28;19924;-65
2022/01/16 09:28:53;;;;;;;;;;;;;;;5.68;28.17;93917.22;6348239;28;20068;-65
2022/01/16 09:31:56;;;;;;;;;;;;;;;5.79;28.18;93906.63;6347377;28;19923;-66
2022/01/16 09:34:57;;;;;;;;;;;;;;;5.96;27.64;93901.66;6348705;28;19924;-68
2022/01/16 09:37:58;;;;;;;;;;;;;;;5.27;26.51;93915.84;6348046;28;19923;-69
2022/01/16 09:40:59;;;;;;;;;;;;;;;4.34;26.49;93914.59;6347650;28;19935;-69
2022/01/16 09:44:01;;;;;;;;;;;;;;;3.85;26.64;93927.47;6347126;28;19924;-69
2022/01/16 09:47:05;;;;;;;;;;;;;;;1.31;29.15;93928.03;6348606;28;19923;-64
2022/01/16 09:50:07;;;;;;;;;;;;;;;-1.66;33.71;93929.78;6348109;28;19924;-63
2022/01/16 09:53:08;;;;;;;;;;;;;;;-3.55;36.93;93926.72;6347964;28;19924;-62
2022/01/16 09:56:09;;;;;;;;;;;;;;;-4.75;39.76;93944.34;6348237;28;19930;-62
2022/01/16 09:59:13;;;;;;;;;;;;;;;-5.59;41.60;93945.22;6348315;28;19923;-63
2022/01/16 10:02:14;;;;;;;;;;;;;;;-6.10;43.55;93957.94;6347389;28;19967;-62
2022/01/16 10:05:25;;;;;;;;;;;;;;;-6.72;45.00;93962.47;6348083;28;19928;-64
2022/01/16 10:08:28;;;;;;;;;;;;;;;-6.78;45.93;93958.44;6348238;28;19923;-63
2022/01/16 10:11:35;;;;;;;;;;;;;;;-6.65;46.18;93952.78;6347348;28;19957;-62
2022/01/16 10:14:46;;;;;;;;;;;;;;;-6.65;46.00;93975.78;6348231;28;19924;-63
2022/01/16 10:17:52;;;;;;;;;;;;;;;-6.79;46.84;93972.13;6347903;28;19935;-64
2022/01/16 10:20:55;;;;;;;;;;;;;;;-6.84;47.05;93989.41;6348053;28;19924;-63
2022/01/16 10:23:56;;;;;;;;;;;;;;;-7.05;48.18;94005.66;6347876;28;19924;-63
2022/01/16 10:27:07;;;;;;;;;;;;;;;-7.27;48.93;94027.00;6347726;28;19928;-62
2022/01/16 10:30:14;;;;;;;;;;;;;;;-7.15;49.28;94025.66;6347830;28;19924;-64
2022/01/16 10:33:19;;;;;;;;;;;;;;;-7.06;48.69;94034.66;6347627;28;19923;-64
2022/01/16 10:36:32;;;;;;;;;;;;;;;-6.80;47.32;94047.16;6346618;28;19931;-63
2022/01/16 10:39:33;;;;;;;;;;;;;;;-6.78;45.58;94040.25;6346612;28;19931;-63
2022/01/16 10:42:35;;;;;;;;;;;;;;;-6.79;45.18;94053.13;6346781;28;19930;-62
2022/01/16 10:45:39;;;;;;;;;;;;;;;-7.04;46.26;94053.34;6347007;28;19924;-64
2022/01/16 10:48:42;;;;;;;;;;;;;;;-7.11;45.69;94077.47;6346283;28;20401;-64
2022/01/16 10:52:02;;;;;;;;;;;;;;;-7.12;45.63;94065.59;6347012;28;19924;-64
2022/01/16 10:55:04;;;;;;;;;;;;;;;-7.28;46.38;94056.00;6346041;28;20061;-63
2022/01/16 10:58:07;;;;;;;;;;;;;;;-7.33;46.49;94065.59;6346849;28;20406;-62
2022/01/16 11:01:13;;;;;;;;;;;;;;;-7.40;46.54;94048.84;6346499;28;20316;-64
2022/01/16 11:04:24;;;;;;;;;;;;;;;-7.44;46.15;94049.88;6346859;28;19969;-64
2022/01/16 11:07:26;;;;;;;;;;;;;;;-7.55;46.86;94054.56;6345802;28;19927;-64
2022/01/16 11:10:31;;;;;;;;;;;;;;;-7.83;47.48;94050.56;6345781;28;19923;-62
2022/01/16 11:13:35;;;;;;;;;;;;;;;-7.72;46.41;94057.78;6346005;28;20390;-62
2022/01/16 11:16:38;;;;;;;;;;;;;;;-7.84;45.79;94066.75;6346424;28;20029;-63
2022/01/16 11:19:40;;;;;;;;;;;;;;;-8.03;45.83;94081.13;6345236;28;19931;-64
2022/01/16 11:23:04;;;;;;;;;;;;;;;-8.03;45.61;94091.31;6345590;28;19924;-64
2022/01/16 11:26:06;;;;;;;;;;;;;;;-8.21;46.09;94103.03;6345429;28;19930;-63
2022/01/16 11:29:11;;;;;;;;;;;;;;;-8.42;47.27;94109.78;6346028;28;19924;-64
2022/01/16 11:32:15;;;;;;;;;;;;;;;-8.70;47.70;94131.13;6346343;28;20381;-64
2022/01/16 11:35:17;;;;;;;;;;;;;;;-8.86;48.18;94138.47;6345099;28;20412;-63
2022/01/16 11:38:23;;;;;;;;;;;;;;;-9.13;48.20;94137.66;6346224;28;19924;-63
2022/01/16 11:41:32;;;;;;;;;;;;;;;-9.01;48.03;94145.78;6344823;28;19924;-63
2022/01/16 11:44:34;;;;;;;;;;;;;;;-9.43;48.49;94153.94;6345351;28;20405;-63
2022/01/16 11:47:35;;;;;;;;;;;;;;;-9.29;48.70;94160.25;6345193;28;19930;-63
2022/01/16 11:50:36;;;;;;;;;;;;;;;-9.43;48.25;94175.13;6345769;28;19928;-63
2022/01/16 11:53:53;;;;;;;;;;;;;;;-9.39;48.09;94168.25;6344998;28;20022;-63
2022/01/16 11:56:54;;;;;;;;;;;;;;;-9.80;48.75;94180.50;6345659;28;19924;-64
2022/01/16 12:00:16;;;;;;;;;;;;;;;-9.78;48.25;94173.66;6345485;28;19947;-63
2022/01/16 12:03:35;;;;;;;;;;;;;;;-9.97;48.20;94178.44;6344628;28;20010;-63
2022/01/16 12:06:40;;;;;;;;;;;;;;;-9.85;48.10;94182.34;6345806;28;19920;-63
2022/01/16 12:12:47;;;;;;;;;;;;;;;-10.17;48.71;94196.81;6345040;28;20336;-64
2022/01/16 12:15:49;;;;;;;;;;;;;;;-10.45;49.26;94212.84;6345666;28;19931;-64
2022/01/16 12:18:52;;;;;;;;;;;;;;;-10.51;49.10;94229.97;6345128;28;20420;-62
2022/01/16 12:21:53;;;;;;;;;;;;;;;-10.78;49.79;94236.56;6345191;28;19947;-62
2022/01/16 12:25:03;;;;;;;;;;;;;;;-10.63;49.68;94247.19;6344371;28;20030;-64
2022/01/16 12:28:09;;;;;;;;;;;;;;;-10.72;50.18;94266.94;6345364;28;20308;-64
2022/01/16 12:31:11;;;;;;;;;;;;;;;-11.15;51.03;94265.41;6344617;28;19930;-63
2022/01/16 12:34:34;;;;;;;;;;;;;;;-11.21;51.33;94275.69;6345381;28;19923;-64
2022/01/16 12:37:42;;;;;;;;;;;;;;;-11.43;51.65;94281.28;6345338;28;20338;-65
2022/01/16 12:40:45;;;;;;;;;;;;;;;-11.54;51.87;94295.88;6345359;28;19931;-64
2022/01/16 12:44:05;;;;;;;;;;;;;;;-11.33;51.36;94307.28;6344816;28;20397;-63
2022/01/16 12:47:06;;;;;;;;;;;;;;;-11.32;51.46;94319.94;6345131;28;19923;-62
2022/01/16 12:50:11;;;;;;;;;;;;;;;-11.40;51.42;94321.81;6345406;28;19930;-63
2022/01/16 12:53:12;;;;;;;;;;;;;;;-11.38;51.07;94324.28;6345082;28;19930;-64
2022/01/16 12:56:24;;;;;;;;;;;;;;;-11.50;51.03;94325.38;6345038;28;19945;-65
2022/01/16 12:59:30;;;;;;;;;;;;;;;-11.77;52.08;94327.63;6344812;28;19924;-63
2022/01/16 13:02:33;;;;;;;;;;;;;;;-11.87;52.31;94326.16;6345110;28;19977;-64
2022/01/16 13:05:34;;;;;;;;;;;;;;;-11.81;51.90;94336.16;6345738;28;19930;-63
2022/01/16 13:08:58;;;;;;;;;;;;;;;-11.95;52.43;94333.09;6349679;28;19923;-63
2022/01/16 13:12:02;;;;;;;;;;;;;;;-12.30;52.72;94347.25;6349276;28;19927;-63
2022/01/16 13:15:04;;;;;;;;;;;;;;;-12.55;53.55;94361.19;6348679;28;20435;-64
2022/01/16 13:18:10;;;;;;;;;;;;;;;-12.75;54.29;94364.88;6348764;28;20439;-62
2022/01/16 13:21:14;;;;;;;;;;;;;;;-12.89;54.02;94369.31;6348771;28;20424;-62
2022/01/16 13:24:22;;;;;;;;;;;;;;;-12.99;54.71;94372.81;6348733;28;20450;-63
2022/01/16 13:27:27;;;;;;;;;;;;;;;-12.84;53.94;94371.78;6348112;28;19924;-64
2022/01/16 13:30:29;;;;;;;;;;;;;;;-12.97;54.23;94376.19;6348590;28;19989;-65
2022/01/16 13:33:32;;;;;;;;;;;;;;;-13.19;54.83;94384.09;6349131;28;19923;-64
2022/01/16 13:36:48;;;;;;;;;;;;;;;-13.21;54.34;94385.81;6348826;28;19924;-64
2022/01/16 13:39:56;;;;;;;;;;;;;;;-13.01;54.03;94372.03;6348602;28;19924;-63
2022/01/16 13:43:06;;;;;;;;;;;;;;;-13.01;54.17;94372.03;6348999;28;19989;-63
2022/01/16 13:46:11;;;;;;;;;;;;;;;-13.24;54.12;94385.84;6348249;28;19931;-63
2022/01/16 13:49:16;;;;;;;;;;;;;;;-13.26;54.19;94385.06;6348681;28;19923;-64
2022/01/16 13:52:29;;;;;;;;;;;;;;;-13.52;55.05;94399.75;6348673;28;19923;-64
2022/01/16 13:55:32;;;;;;;;;;;;;;;-13.61;55.29;94419.22;6348792;28;20389;-64
2022/01/16 13:58:34;;;;;;;;;;;;;;;-13.48;54.74;94426.66;6347927;28;19924;-64
2022/01/16 14:01:39;;;;;;;;;;;;;;;-13.76;55.53;94437.06;6348375;28;20456;-63
2022/01/16 14:04:41;;;;;;;;;;;;;;;-13.68;55.59;94445.41;6348338;28;20287;-63
2022/01/16 14:07:42;;;;;;;;;;;;;;;-13.69;55.52;94463.97;6329619;28;19923;-64
2022/01/16 14:10:43;;;;;;;;;;;;;;;-13.80;56.45;94475.88;6347558;28;19923;-62
2022/01/16 14:13:54;;;;;;;;;;;;;;;-13.51;55.90;94474.75;6347669;28;20015;-65
2022/01/16 14:20:22;;;;;;;;;;;;;;;-13.78;56.41;94485.97;6347860;28;19930;-64
2022/01/16 14:23:22;;;;;;;;;;;;;;;-13.67;56.36;94474.91;6347018;28;19946;-64
2022/01/16 14:26:25;;;;;;;;;;;;;;;-13.62;56.55;94485.81;6347706;28;19924;-62
2022/01/16 14:29:29;;;;;;;;;;;;;;;-13.40;55.60;94498.22;6346757;28;20018;-64
2022/01/16 14:32:30;;;;;;;;;;;;;;;-13.51;56.10;94493.28;6346916;28;20281;-63
2022/01/16 14:35:31;;;;;;;;;;;;;;;-13.58;56.02;94492.53;6346818;28;19930;-63
2022/01/16 14:38:36;;;;;;;;;;;;;;;-13.86;56.85;94486.06;6347661;28;19923;-65
2022/01/16 14:41:43;;;;;;;;;;;;;;;-13.81;57.05;94479.28;6347439;28;20343;-64
2022/01/16 14:44:49;;;;;;;;;;;;;;;-13.76;56.88;94482.56;6347174;28;19923;-63
2022/01/16 14:47:50;;;;;;;;;;;;;;;-13.80;57.10;94488.53;6347468;28;19924;-64
2022/01/16 14:50:53;;;;;;;;;;;;;;;-13.46;56.21;94506.72;6347271;28;20397;-63
2022/01/16 14:53:54;;;;;;;;;;;;;;;-13.70;56.83;94507.81;6347077;28;20103;-64
2022/01/16 14:57:00;;;;;;;;;;;;;;;-13.73;56.27;94532.28;6347384;28;19924;-63
2022/01/16 15:00:04;;;;;;;;;;;;;;;-13.81;56.83;94537.41;6347140;28;20069;-62
2022/01/16 15:03:05;;;;;;;;;;;;;;;-13.80;56.16;94550.03;6346976;28;19934;-63
2022/01/16 15:06:09;;;;;;;;;;;;;;;-13.92;57.47;94555.19;6329180;28;20022;-65
2022/01/16 15:09:12;;;;;;;;;;;;;;;-13.77;56.92;94568.56;6328469;28;19924;-65
2022/01/16 15:12:15;;;;;;;;;;;;;;;-13.95;57.32;94569.53;6346028;28;20065;-63
2022/01/16 15:15:18;;;;;;;;;;;;;;;-13.92;57.29;94577.94;6346709;28;19967;-63
2022/01/16 15:18:21;;;;;;;;;;;;;;;-13.95;56.89;94584.69;6345581;28;19946;-64
2022/01/16 15:21:40;;;;;;;;;;;;;;;-13.98;57.02;94590.63;6346405;28;19931;-63
2022/01/16 15:24:41;;;;;;;;;;;;;;;-14.09;57.03;94590.72;6346286;28;19931;-63
2022/01/16 15:27:42;;;;;;;;;;;;;;;-13.99;57.16;94585.59;6346413;28;20301;-64
2022/01/16 15:30:43;;;;;;;;;;;;;;;-13.75;56.53;94604.78;6344567;28;20415;-64
2022/01/16 15:33:44;;;;;;;;;;;;;;;-13.86;56.61;94609.91;6345986;28;19923;-65
2022/01/16 15:36:48;;;;;;;;;;;;;;;-14.11;56.67;94632.81;6346316;28;19931;-64
2022/01/16 15:39:49;;;;;;;;;;;;;;;-13.98;56.88;94638.66;6344464;28;20030;-64
2022/01/16 15:42:51;;;;;;;;;;;;;;;-14.15;57.33;94641.28;6345346;28;19930;-64
2022/01/16 15:45:53;;;;;;;;;;;;;;;-14.11;57.52;94627.78;6346120;28;19924;-64
2022/01/16 15:48:54;;;;;;;;;;;;;;;-14.09;57.55;94631.13;6345561;28;20316;-64
2022/01/16 15:51:55;;;;;;;;;;;;;;;-14.17;57.71;94627.81;6345497;28;20018;-64
2022/01/16 15:54:57;;;;;;;;;;;;;;;-14.16;58.22;94603.38;6345958;28;19923;-64
2022/01/16 15:57:58;;;;;;;;;;;;;;;-14.08;57.81;94612.59;6345996;28;19947;-65
2022/01/16 16:01:00;;;;;;;;;;;;;;;-14.06;57.89;94617.66;6345879;28;19926;-64
2022/01/16 16:04:05;;;;;;;;;;;;;;;-14.13;58.11;94616.81;6345663;28;19927;-64
2022/01/16 16:07:06;;;;;;;;;;;;;;;-14.22;58.44;94609.31;6346009;28;19927;-65
2022/01/16 16:10:08;;;;;;;;;;;;;;;-14.44;58.71;94610.28;6345823;28;19946;-64
2022/01/16 16:13:16;;;;;;;;;;;;;;;-14.15;58.14;94616.03;6345442;28;20028;-64
2022/01/16 16:16:19;;;;;;;;;;;;;;;-14.24;58.51;94636.25;6345650;28;19931;-64
2022/01/16 16:19:23;;;;;;;;;;;;;;;-14.27;58.51;94631.22;6345106;28;19992;-64
2022/01/16 16:22:28;;;;;;;;;;;;;;;-14.15;57.57;94620.22;6345566;28;19923;-63
2022/01/16 16:25:36;;;;;;;;;;;;;;;-14.27;58.12;94631.22;6345356;28;19924;-63
2022/01/16 16:28:45;;;;;;;;;;;;;;;-14.33;58.25;94639.69;6345304;28;19923;-64
2022/01/16 16:31:48;;;;;;;;;;;;;;;-14.32;57.70;94643.91;6345396;28;20308;-64
2022/01/16 16:34:52;;;;;;;;;;;;;;;-14.29;58.19;94640.53;6345777;28;20026;-62
2022/01/16 16:37:55;;;;;;;;;;;;;;;-14.45;58.28;94641.44;6345324;28;19924;-63
2022/01/16 16:40:59;;;;;;;;;;;;;;;-14.22;57.79;94644.69;6347635;28;19927;-64
2022/01/16 16:44:07;;;;;;;;;;;;;;;-14.40;57.87;94649.84;6349197;28;19946;-64